<?xml version="1.0" encoding="UTF-8" standalone="no" ?>
<gpx xmlns="http://www.topografix.com/GPX/1/1" creator="MapSource 6.15.6" version="1.1" xmlns:xsi="http://www.w3.org/2001/XMLSchema-instance" xsi:schemaLocation="http://www.topografix.com/GPX/1/1 http://www.topografix.com/GPX/1/1/gpx.xsd">

  <metadata>
    <link href="http://www.garmin.com">
      <text>Garmin International</text>
    </link>
    <time>2009-06-17T12:46:08Z</time>
    <bounds maxlat="45.0334740" maxlon="-93.3816540" minlat="44.9844570" minlon="-93.4446560"/>
  </metadata>

  <trk>
    <name>090527_WedDr</name>
    <extensions>
      <gpxx:TrackExtension xmlns:gpxx="http://www.garmin.com/xmlschemas/GpxExtensions/v3">
        <gpxx:DisplayColor>White</gpxx:DisplayColor>
      </gpxx:TrackExtension>
    </extensions>
    <trkseg>
      <trkpt lat="44.9885960" lon="-93.4188910">
        <ele>280.3600000</ele>
        <time>2009-05-27T23:45:07Z</time>
      </trkpt>
      <trkpt lat="44.9886620" lon="-93.4190890">
        <ele>278.9200000</ele>
        <time>2009-05-27T23:45:13Z</time>
      </trkpt>
      <trkpt lat="44.9886710" lon="-93.4191700">
        <ele>278.9200000</ele>
        <time>2009-05-27T23:45:14Z</time>
      </trkpt>
      <trkpt lat="44.9886710" lon="-93.4192640">
        <ele>278.9200000</ele>
        <time>2009-05-27T23:45:15Z</time>
      </trkpt>
      <trkpt lat="44.9886150" lon="-93.4193530">
        <ele>279.4000000</ele>
        <time>2009-05-27T23:45:16Z</time>
      </trkpt>
      <trkpt lat="44.9885530" lon="-93.4194320">
        <ele>279.4000000</ele>
        <time>2009-05-27T23:45:17Z</time>
      </trkpt>
      <trkpt lat="44.9884890" lon="-93.4195150">
        <ele>279.4000000</ele>
        <time>2009-05-27T23:45:18Z</time>
      </trkpt>
      <trkpt lat="44.9884250" lon="-93.4195970">
        <ele>279.4000000</ele>
        <time>2009-05-27T23:45:19Z</time>
      </trkpt>
      <trkpt lat="44.9883890" lon="-93.4197490">
        <ele>279.8800000</ele>
        <time>2009-05-27T23:45:20Z</time>
      </trkpt>
      <trkpt lat="44.9884140" lon="-93.4198550">
        <ele>280.3600000</ele>
        <time>2009-05-27T23:45:21Z</time>
      </trkpt>
      <trkpt lat="44.9884420" lon="-93.4199740">
        <ele>280.3600000</ele>
        <time>2009-05-27T23:45:22Z</time>
      </trkpt>
      <trkpt lat="44.9884720" lon="-93.4201040">
        <ele>279.8800000</ele>
        <time>2009-05-27T23:45:23Z</time>
      </trkpt>
      <trkpt lat="44.9888030" lon="-93.4215300">
        <ele>278.9200000</ele>
        <time>2009-05-27T23:45:35Z</time>
      </trkpt>
      <trkpt lat="44.9891940" lon="-93.4234040">
        <ele>279.8800000</ele>
        <time>2009-05-27T23:45:51Z</time>
      </trkpt>
      <trkpt lat="44.9892300" lon="-93.4235000">
        <ele>279.8800000</ele>
        <time>2009-05-27T23:45:52Z</time>
      </trkpt>
      <trkpt lat="44.9893300" lon="-93.4237580">
        <ele>278.9200000</ele>
        <time>2009-05-27T23:45:58Z</time>
      </trkpt>
      <trkpt lat="44.9893580" lon="-93.4238300">
        <ele>278.9200000</ele>
        <time>2009-05-27T23:46:00Z</time>
      </trkpt>
      <trkpt lat="44.9894490" lon="-93.4238840">
        <ele>278.9200000</ele>
        <time>2009-05-27T23:46:01Z</time>
      </trkpt>
      <trkpt lat="44.9895130" lon="-93.4239220">
        <ele>278.4400000</ele>
        <time>2009-05-27T23:46:02Z</time>
      </trkpt>
      <trkpt lat="44.9901710" lon="-93.4243130">
        <ele>277.9600000</ele>
        <time>2009-05-27T23:46:08Z</time>
      </trkpt>
      <trkpt lat="44.9912250" lon="-93.4247340">
        <ele>278.4400000</ele>
        <time>2009-05-27T23:46:16Z</time>
      </trkpt>
      <trkpt lat="44.9926840" lon="-93.4252290">
        <ele>279.4000000</ele>
        <time>2009-05-27T23:46:27Z</time>
      </trkpt>
      <trkpt lat="44.9938350" lon="-93.4264190">
        <ele>284.6900000</ele>
        <time>2009-05-27T23:46:38Z</time>
      </trkpt>
      <trkpt lat="44.9945000" lon="-93.4269210">
        <ele>284.2100000</ele>
        <time>2009-05-27T23:46:44Z</time>
      </trkpt>
      <trkpt lat="44.9946240" lon="-93.4269690">
        <ele>283.7300000</ele>
        <time>2009-05-27T23:46:45Z</time>
      </trkpt>
      <trkpt lat="44.9958540" lon="-93.4273540">
        <ele>282.2800000</ele>
        <time>2009-05-27T23:46:55Z</time>
      </trkpt>
      <trkpt lat="44.9970870" lon="-93.4276650">
        <ele>281.3200000</ele>
        <time>2009-05-27T23:47:06Z</time>
      </trkpt>
      <trkpt lat="44.9981970" lon="-93.4281450">
        <ele>281.8000000</ele>
        <time>2009-05-27T23:47:17Z</time>
      </trkpt>
      <trkpt lat="44.9987070" lon="-93.4286430">
        <ele>282.7700000</ele>
        <time>2009-05-27T23:47:23Z</time>
      </trkpt>
      <trkpt lat="44.9987930" lon="-93.4286980">
        <ele>282.7700000</ele>
        <time>2009-05-27T23:47:24Z</time>
      </trkpt>
      <trkpt lat="44.9988830" lon="-93.4287430">
        <ele>282.2800000</ele>
        <time>2009-05-27T23:47:25Z</time>
      </trkpt>
      <trkpt lat="44.9993240" lon="-93.4290010">
        <ele>283.2500000</ele>
        <time>2009-05-27T23:47:31Z</time>
      </trkpt>
      <trkpt lat="44.9993830" lon="-93.4290710">
        <ele>283.7300000</ele>
        <time>2009-05-27T23:47:32Z</time>
      </trkpt>
      <trkpt lat="44.9994410" lon="-93.4291410">
        <ele>283.7300000</ele>
        <time>2009-05-27T23:47:33Z</time>
      </trkpt>
      <trkpt lat="44.9994860" lon="-93.4291960">
        <ele>283.7300000</ele>
        <time>2009-05-27T23:47:34Z</time>
      </trkpt>
      <trkpt lat="44.9995130" lon="-93.4292700">
        <ele>283.2500000</ele>
        <time>2009-05-27T23:47:35Z</time>
      </trkpt>
      <trkpt lat="44.9995340" lon="-93.4293300">
        <ele>283.2500000</ele>
        <time>2009-05-27T23:47:36Z</time>
      </trkpt>
      <trkpt lat="44.9995500" lon="-93.4293740">
        <ele>283.2500000</ele>
        <time>2009-05-27T23:47:37Z</time>
      </trkpt>
      <trkpt lat="44.9995600" lon="-93.4294040">
        <ele>283.2500000</ele>
        <time>2009-05-27T23:47:38Z</time>
      </trkpt>
      <trkpt lat="44.9997560" lon="-93.4299640">
        <ele>281.8000000</ele>
        <time>2009-05-27T23:47:53Z</time>
      </trkpt>
      <trkpt lat="45.0002220" lon="-93.4308950">
        <ele>280.3600000</ele>
        <time>2009-05-27T23:48:00Z</time>
      </trkpt>
      <trkpt lat="45.0009070" lon="-93.4316400">
        <ele>281.3200000</ele>
        <time>2009-05-27T23:48:07Z</time>
      </trkpt>
      <trkpt lat="45.0010120" lon="-93.4317140">
        <ele>281.3200000</ele>
        <time>2009-05-27T23:48:08Z</time>
      </trkpt>
      <trkpt lat="45.0011260" lon="-93.4317520">
        <ele>281.3200000</ele>
        <time>2009-05-27T23:48:09Z</time>
      </trkpt>
      <trkpt lat="45.0012430" lon="-93.4317850">
        <ele>281.3200000</ele>
        <time>2009-05-27T23:48:10Z</time>
      </trkpt>
      <trkpt lat="45.0013620" lon="-93.4318170">
        <ele>281.3200000</ele>
        <time>2009-05-27T23:48:11Z</time>
      </trkpt>
      <trkpt lat="45.0014790" lon="-93.4318490">
        <ele>281.3200000</ele>
        <time>2009-05-27T23:48:12Z</time>
      </trkpt>
      <trkpt lat="45.0016090" lon="-93.4318250">
        <ele>280.8400000</ele>
        <time>2009-05-27T23:48:13Z</time>
      </trkpt>
      <trkpt lat="45.0017310" lon="-93.4317900">
        <ele>280.8400000</ele>
        <time>2009-05-27T23:48:14Z</time>
      </trkpt>
      <trkpt lat="45.0018520" lon="-93.4317350">
        <ele>280.8400000</ele>
        <time>2009-05-27T23:48:15Z</time>
      </trkpt>
      <trkpt lat="45.0019630" lon="-93.4316580">
        <ele>280.8400000</ele>
        <time>2009-05-27T23:48:16Z</time>
      </trkpt>
      <trkpt lat="45.0020720" lon="-93.4315810">
        <ele>281.3200000</ele>
        <time>2009-05-27T23:48:17Z</time>
      </trkpt>
      <trkpt lat="45.0021780" lon="-93.4315070">
        <ele>281.8000000</ele>
        <time>2009-05-27T23:48:18Z</time>
      </trkpt>
      <trkpt lat="45.0022780" lon="-93.4314170">
        <ele>281.8000000</ele>
        <time>2009-05-27T23:48:19Z</time>
      </trkpt>
      <trkpt lat="45.0023670" lon="-93.4313140">
        <ele>281.8000000</ele>
        <time>2009-05-27T23:48:20Z</time>
      </trkpt>
      <trkpt lat="45.0024550" lon="-93.4312150">
        <ele>281.8000000</ele>
        <time>2009-05-27T23:48:21Z</time>
      </trkpt>
      <trkpt lat="45.0025440" lon="-93.4311080">
        <ele>281.3200000</ele>
        <time>2009-05-27T23:48:22Z</time>
      </trkpt>
      <trkpt lat="45.0026190" lon="-93.4309900">
        <ele>281.3200000</ele>
        <time>2009-05-27T23:48:23Z</time>
      </trkpt>
      <trkpt lat="45.0027720" lon="-93.4307500">
        <ele>280.8400000</ele>
        <time>2009-05-27T23:48:25Z</time>
      </trkpt>
      <trkpt lat="45.0028520" lon="-93.4306440">
        <ele>280.8400000</ele>
        <time>2009-05-27T23:48:26Z</time>
      </trkpt>
      <trkpt lat="45.0029600" lon="-93.4305900">
        <ele>280.8400000</ele>
        <time>2009-05-27T23:48:27Z</time>
      </trkpt>
      <trkpt lat="45.0030670" lon="-93.4305370">
        <ele>280.8400000</ele>
        <time>2009-05-27T23:48:28Z</time>
      </trkpt>
      <trkpt lat="45.0031710" lon="-93.4304850">
        <ele>280.8400000</ele>
        <time>2009-05-27T23:48:29Z</time>
      </trkpt>
      <trkpt lat="45.0032800" lon="-93.4304990">
        <ele>280.8400000</ele>
        <time>2009-05-27T23:48:30Z</time>
      </trkpt>
      <trkpt lat="45.0033860" lon="-93.4305170">
        <ele>280.8400000</ele>
        <time>2009-05-27T23:48:31Z</time>
      </trkpt>
      <trkpt lat="45.0034890" lon="-93.4305410">
        <ele>281.3200000</ele>
        <time>2009-05-27T23:48:32Z</time>
      </trkpt>
      <trkpt lat="45.0035900" lon="-93.4305690">
        <ele>281.3200000</ele>
        <time>2009-05-27T23:48:33Z</time>
      </trkpt>
      <trkpt lat="45.0043710" lon="-93.4306590">
        <ele>282.2800000</ele>
        <time>2009-05-27T23:48:42Z</time>
      </trkpt>
      <trkpt lat="45.0061860" lon="-93.4308950">
        <ele>284.2100000</ele>
        <time>2009-05-27T23:49:00Z</time>
      </trkpt>
      <trkpt lat="45.0063520" lon="-93.4310010">
        <ele>284.6900000</ele>
        <time>2009-05-27T23:49:02Z</time>
      </trkpt>
      <trkpt lat="45.0064320" lon="-93.4310520">
        <ele>285.1700000</ele>
        <time>2009-05-27T23:49:03Z</time>
      </trkpt>
      <trkpt lat="45.0065050" lon="-93.4311100">
        <ele>285.6500000</ele>
        <time>2009-05-27T23:49:04Z</time>
      </trkpt>
      <trkpt lat="45.0075900" lon="-93.4323270">
        <ele>294.7800000</ele>
        <time>2009-05-27T23:49:18Z</time>
      </trkpt>
      <trkpt lat="45.0088830" lon="-93.4335420">
        <ele>295.2600000</ele>
        <time>2009-05-27T23:49:32Z</time>
      </trkpt>
      <trkpt lat="45.0103840" lon="-93.4345780">
        <ele>292.8600000</ele>
        <time>2009-05-27T23:49:46Z</time>
      </trkpt>
      <trkpt lat="45.0116880" lon="-93.4359600">
        <ele>289.0100000</ele>
        <time>2009-05-27T23:49:59Z</time>
      </trkpt>
      <trkpt lat="45.0131000" lon="-93.4377430">
        <ele>287.0900000</ele>
        <time>2009-05-27T23:50:15Z</time>
      </trkpt>
      <trkpt lat="45.0142080" lon="-93.4389760">
        <ele>294.3000000</ele>
        <time>2009-05-27T23:50:27Z</time>
      </trkpt>
      <trkpt lat="45.0157670" lon="-93.4400500">
        <ele>298.6300000</ele>
        <time>2009-05-27T23:50:42Z</time>
      </trkpt>
      <trkpt lat="45.0167910" lon="-93.4412480">
        <ele>296.7000000</ele>
        <time>2009-05-27T23:50:54Z</time>
      </trkpt>
      <trkpt lat="45.0169320" lon="-93.4415140">
        <ele>296.2200000</ele>
        <time>2009-05-27T23:51:00Z</time>
      </trkpt>
      <trkpt lat="45.0170640" lon="-93.4418470">
        <ele>294.7800000</ele>
        <time>2009-05-27T23:51:13Z</time>
      </trkpt>
      <trkpt lat="45.0171770" lon="-93.4421870">
        <ele>294.3000000</ele>
        <time>2009-05-27T23:51:17Z</time>
      </trkpt>
      <trkpt lat="45.0171950" lon="-93.4422410">
        <ele>293.3400000</ele>
        <time>2009-05-27T23:51:18Z</time>
      </trkpt>
      <trkpt lat="45.0173170" lon="-93.4422300">
        <ele>292.3800000</ele>
        <time>2009-05-27T23:51:19Z</time>
      </trkpt>
      <trkpt lat="45.0174000" lon="-93.4421880">
        <ele>291.9000000</ele>
        <time>2009-05-27T23:51:20Z</time>
      </trkpt>
      <trkpt lat="45.0175000" lon="-93.4421420">
        <ele>291.4200000</ele>
        <time>2009-05-27T23:51:21Z</time>
      </trkpt>
      <trkpt lat="45.0185190" lon="-93.4418410">
        <ele>287.5700000</ele>
        <time>2009-05-27T23:51:28Z</time>
      </trkpt>
      <trkpt lat="45.0199480" lon="-93.4419630">
        <ele>284.6900000</ele>
        <time>2009-05-27T23:51:36Z</time>
      </trkpt>
      <trkpt lat="45.0215510" lon="-93.4422780">
        <ele>282.7700000</ele>
        <time>2009-05-27T23:51:47Z</time>
      </trkpt>
      <trkpt lat="45.0231370" lon="-93.4426570">
        <ele>282.7700000</ele>
        <time>2009-05-27T23:52:00Z</time>
      </trkpt>
      <trkpt lat="45.0245460" lon="-93.4431300">
        <ele>283.2500000</ele>
        <time>2009-05-27T23:52:11Z</time>
      </trkpt>
      <trkpt lat="45.0267410" lon="-93.4438870">
        <ele>282.2800000</ele>
        <time>2009-05-27T23:52:28Z</time>
      </trkpt>
      <trkpt lat="45.0279580" lon="-93.4442680">
        <ele>283.2500000</ele>
        <time>2009-05-27T23:52:39Z</time>
      </trkpt>
      <trkpt lat="45.0284750" lon="-93.4445260">
        <ele>285.1700000</ele>
        <time>2009-05-27T23:52:51Z</time>
      </trkpt>
      <trkpt lat="45.0287260" lon="-93.4446560">
        <ele>285.6500000</ele>
        <time>2009-05-27T23:52:56Z</time>
      </trkpt>
      <trkpt lat="45.0287890" lon="-93.4446150">
        <ele>285.6500000</ele>
        <time>2009-05-27T23:52:57Z</time>
      </trkpt>
      <trkpt lat="45.0288720" lon="-93.4445840">
        <ele>285.6500000</ele>
        <time>2009-05-27T23:52:58Z</time>
      </trkpt>
      <trkpt lat="45.0289750" lon="-93.4445450">
        <ele>285.6500000</ele>
        <time>2009-05-27T23:52:59Z</time>
      </trkpt>
      <trkpt lat="45.0290830" lon="-93.4444430">
        <ele>285.1700000</ele>
        <time>2009-05-27T23:53:00Z</time>
      </trkpt>
      <trkpt lat="45.0291420" lon="-93.4442930">
        <ele>284.6900000</ele>
        <time>2009-05-27T23:53:01Z</time>
      </trkpt>
      <trkpt lat="45.0292040" lon="-93.4441350">
        <ele>284.2100000</ele>
        <time>2009-05-27T23:53:02Z</time>
      </trkpt>
      <trkpt lat="45.0298250" lon="-93.4425650">
        <ele>284.6900000</ele>
        <time>2009-05-27T23:53:12Z</time>
      </trkpt>
      <trkpt lat="45.0307000" lon="-93.4403610">
        <ele>288.0500000</ele>
        <time>2009-05-27T23:53:29Z</time>
      </trkpt>
      <trkpt lat="45.0309860" lon="-93.4396420">
        <ele>289.0100000</ele>
        <time>2009-05-27T23:53:37Z</time>
      </trkpt>
      <trkpt lat="45.0309420" lon="-93.4395190">
        <ele>289.0100000</ele>
        <time>2009-05-27T23:53:38Z</time>
      </trkpt>
      <trkpt lat="45.0309420" lon="-93.4394120">
        <ele>289.0100000</ele>
        <time>2009-05-27T23:53:39Z</time>
      </trkpt>
      <trkpt lat="45.0309420" lon="-93.4393090">
        <ele>289.0100000</ele>
        <time>2009-05-27T23:53:40Z</time>
      </trkpt>
      <trkpt lat="45.0308960" lon="-93.4392180">
        <ele>288.5300000</ele>
        <time>2009-05-27T23:53:41Z</time>
      </trkpt>
      <trkpt lat="45.0308350" lon="-93.4391360">
        <ele>288.5300000</ele>
        <time>2009-05-27T23:53:42Z</time>
      </trkpt>
      <trkpt lat="45.0307540" lon="-93.4390650">
        <ele>288.0500000</ele>
        <time>2009-05-27T23:53:43Z</time>
      </trkpt>
      <trkpt lat="45.0306700" lon="-93.4390020">
        <ele>287.5700000</ele>
        <time>2009-05-27T23:53:44Z</time>
      </trkpt>
      <trkpt lat="45.0299930" lon="-93.4385770">
        <ele>282.7700000</ele>
        <time>2009-05-27T23:53:51Z</time>
      </trkpt>
      <trkpt lat="45.0298970" lon="-93.4385490">
        <ele>281.8000000</ele>
        <time>2009-05-27T23:53:52Z</time>
      </trkpt>
      <trkpt lat="45.0298010" lon="-93.4385420">
        <ele>281.3200000</ele>
        <time>2009-05-27T23:53:53Z</time>
      </trkpt>
      <trkpt lat="45.0297060" lon="-93.4385350">
        <ele>279.8800000</ele>
        <time>2009-05-27T23:53:54Z</time>
      </trkpt>
      <trkpt lat="45.0296140" lon="-93.4385290">
        <ele>278.4400000</ele>
        <time>2009-05-27T23:53:55Z</time>
      </trkpt>
      <trkpt lat="45.0285320" lon="-93.4382210">
        <ele>269.7900000</ele>
        <time>2009-05-27T23:54:08Z</time>
      </trkpt>
      <trkpt lat="45.0281380" lon="-93.4380790">
        <ele>270.2700000</ele>
        <time>2009-05-27T23:54:16Z</time>
      </trkpt>
      <trkpt lat="45.0279170" lon="-93.4380000">
        <ele>270.7500000</ele>
        <time>2009-05-27T23:54:32Z</time>
      </trkpt>
      <trkpt lat="45.0276880" lon="-93.4378370">
        <ele>268.8300000</ele>
        <time>2009-05-27T23:54:47Z</time>
      </trkpt>
      <trkpt lat="45.0276430" lon="-93.4378030">
        <ele>268.3500000</ele>
        <time>2009-05-27T23:54:48Z</time>
      </trkpt>
      <trkpt lat="45.0275920" lon="-93.4377650">
        <ele>268.3500000</ele>
        <time>2009-05-27T23:54:49Z</time>
      </trkpt>
      <trkpt lat="45.0272440" lon="-93.4369490">
        <ele>270.2700000</ele>
        <time>2009-05-27T23:54:56Z</time>
      </trkpt>
      <trkpt lat="45.0271290" lon="-93.4366580">
        <ele>269.7900000</ele>
        <time>2009-05-27T23:54:58Z</time>
      </trkpt>
      <trkpt lat="45.0270700" lon="-93.4365210">
        <ele>270.2700000</ele>
        <time>2009-05-27T23:54:59Z</time>
      </trkpt>
      <trkpt lat="45.0269800" lon="-93.4364040">
        <ele>270.2700000</ele>
        <time>2009-05-27T23:55:00Z</time>
      </trkpt>
      <trkpt lat="45.0268860" lon="-93.4362840">
        <ele>270.2700000</ele>
        <time>2009-05-27T23:55:01Z</time>
      </trkpt>
      <trkpt lat="45.0267930" lon="-93.4361640">
        <ele>270.2700000</ele>
        <time>2009-05-27T23:55:02Z</time>
      </trkpt>
      <trkpt lat="45.0266940" lon="-93.4360730">
        <ele>270.2700000</ele>
        <time>2009-05-27T23:55:03Z</time>
      </trkpt>
      <trkpt lat="45.0265890" lon="-93.4359830">
        <ele>270.2700000</ele>
        <time>2009-05-27T23:55:04Z</time>
      </trkpt>
      <trkpt lat="45.0264840" lon="-93.4358930">
        <ele>270.7500000</ele>
        <time>2009-05-27T23:55:05Z</time>
      </trkpt>
      <trkpt lat="45.0263700" lon="-93.4358260">
        <ele>270.7500000</ele>
        <time>2009-05-27T23:55:06Z</time>
      </trkpt>
      <trkpt lat="45.0262510" lon="-93.4357560">
        <ele>270.2700000</ele>
        <time>2009-05-27T23:55:07Z</time>
      </trkpt>
      <trkpt lat="45.0259010" lon="-93.4355260">
        <ele>270.2700000</ele>
        <time>2009-05-27T23:55:10Z</time>
      </trkpt>
      <trkpt lat="45.0257980" lon="-93.4354230">
        <ele>270.2700000</ele>
        <time>2009-05-27T23:55:11Z</time>
      </trkpt>
      <trkpt lat="45.0257070" lon="-93.4353090">
        <ele>270.2700000</ele>
        <time>2009-05-27T23:55:12Z</time>
      </trkpt>
      <trkpt lat="45.0256250" lon="-93.4351810">
        <ele>270.7500000</ele>
        <time>2009-05-27T23:55:13Z</time>
      </trkpt>
      <trkpt lat="45.0255450" lon="-93.4350560">
        <ele>270.7500000</ele>
        <time>2009-05-27T23:55:14Z</time>
      </trkpt>
      <trkpt lat="45.0254660" lon="-93.4349340">
        <ele>271.7100000</ele>
        <time>2009-05-27T23:55:15Z</time>
      </trkpt>
      <trkpt lat="45.0248490" lon="-93.4340190">
        <ele>279.8800000</ele>
        <time>2009-05-27T23:55:23Z</time>
      </trkpt>
      <trkpt lat="45.0247560" lon="-93.4339660">
        <ele>280.3600000</ele>
        <time>2009-05-27T23:55:24Z</time>
      </trkpt>
      <trkpt lat="45.0246640" lon="-93.4339140">
        <ele>281.3200000</ele>
        <time>2009-05-27T23:55:25Z</time>
      </trkpt>
      <trkpt lat="45.0245740" lon="-93.4338690">
        <ele>282.7700000</ele>
        <time>2009-05-27T23:55:26Z</time>
      </trkpt>
      <trkpt lat="45.0244750" lon="-93.4338490">
        <ele>283.2500000</ele>
        <time>2009-05-27T23:55:27Z</time>
      </trkpt>
      <trkpt lat="45.0243760" lon="-93.4338290">
        <ele>283.7300000</ele>
        <time>2009-05-27T23:55:28Z</time>
      </trkpt>
      <trkpt lat="45.0242730" lon="-93.4338490">
        <ele>284.2100000</ele>
        <time>2009-05-27T23:55:29Z</time>
      </trkpt>
      <trkpt lat="45.0241640" lon="-93.4338690">
        <ele>284.6900000</ele>
        <time>2009-05-27T23:55:30Z</time>
      </trkpt>
      <trkpt lat="45.0226120" lon="-93.4343440">
        <ele>276.0400000</ele>
        <time>2009-05-27T23:55:44Z</time>
      </trkpt>
      <trkpt lat="45.0225000" lon="-93.4343440">
        <ele>275.5600000</ele>
        <time>2009-05-27T23:55:45Z</time>
      </trkpt>
      <trkpt lat="45.0223870" lon="-93.4343440">
        <ele>274.5900000</ele>
        <time>2009-05-27T23:55:46Z</time>
      </trkpt>
      <trkpt lat="45.0222880" lon="-93.4343230">
        <ele>273.6300000</ele>
        <time>2009-05-27T23:55:47Z</time>
      </trkpt>
      <trkpt lat="45.0221960" lon="-93.4342540">
        <ele>273.1500000</ele>
        <time>2009-05-27T23:55:48Z</time>
      </trkpt>
      <trkpt lat="45.0221300" lon="-93.4341890">
        <ele>272.6700000</ele>
        <time>2009-05-27T23:55:49Z</time>
      </trkpt>
      <trkpt lat="45.0220760" lon="-93.4340910">
        <ele>271.7100000</ele>
        <time>2009-05-27T23:55:50Z</time>
      </trkpt>
      <trkpt lat="45.0220230" lon="-93.4339960">
        <ele>270.7500000</ele>
        <time>2009-05-27T23:55:51Z</time>
      </trkpt>
      <trkpt lat="45.0219720" lon="-93.4339040">
        <ele>270.2700000</ele>
        <time>2009-05-27T23:55:52Z</time>
      </trkpt>
      <trkpt lat="45.0219300" lon="-93.4338290">
        <ele>268.3500000</ele>
        <time>2009-05-27T23:55:53Z</time>
      </trkpt>
      <trkpt lat="45.0219300" lon="-93.4337370">
        <ele>266.9000000</ele>
        <time>2009-05-27T23:55:54Z</time>
      </trkpt>
      <trkpt lat="45.0219300" lon="-93.4336480">
        <ele>265.9400000</ele>
        <time>2009-05-27T23:55:55Z</time>
      </trkpt>
      <trkpt lat="45.0219300" lon="-93.4335760">
        <ele>264.9800000</ele>
        <time>2009-05-27T23:55:56Z</time>
      </trkpt>
      <trkpt lat="45.0219300" lon="-93.4333960">
        <ele>262.5800000</ele>
        <time>2009-05-27T23:56:04Z</time>
      </trkpt>
      <trkpt lat="45.0219300" lon="-93.4329200">
        <ele>263.5400000</ele>
        <time>2009-05-27T23:56:15Z</time>
      </trkpt>
      <trkpt lat="45.0219300" lon="-93.4318320">
        <ele>263.5400000</ele>
        <time>2009-05-27T23:56:23Z</time>
      </trkpt>
      <trkpt lat="45.0219190" lon="-93.4315220">
        <ele>264.0200000</ele>
        <time>2009-05-27T23:56:26Z</time>
      </trkpt>
      <trkpt lat="45.0218850" lon="-93.4314190">
        <ele>264.0200000</ele>
        <time>2009-05-27T23:56:27Z</time>
      </trkpt>
      <trkpt lat="45.0218450" lon="-93.4313000">
        <ele>264.0200000</ele>
        <time>2009-05-27T23:56:28Z</time>
      </trkpt>
      <trkpt lat="45.0216710" lon="-93.4309000">
        <ele>264.5000000</ele>
        <time>2009-05-27T23:56:31Z</time>
      </trkpt>
      <trkpt lat="45.0216460" lon="-93.4307400">
        <ele>264.5000000</ele>
        <time>2009-05-27T23:56:32Z</time>
      </trkpt>
      <trkpt lat="45.0214160" lon="-93.4291970">
        <ele>272.1900000</ele>
        <time>2009-05-27T23:56:41Z</time>
      </trkpt>
      <trkpt lat="45.0214250" lon="-93.4290290">
        <ele>273.1500000</ele>
        <time>2009-05-27T23:56:42Z</time>
      </trkpt>
      <trkpt lat="45.0214540" lon="-93.4285450">
        <ele>276.0400000</ele>
        <time>2009-05-27T23:56:45Z</time>
      </trkpt>
      <trkpt lat="45.0214010" lon="-93.4281480">
        <ele>276.5200000</ele>
        <time>2009-05-27T23:56:48Z</time>
      </trkpt>
      <trkpt lat="45.0213140" lon="-93.4280430">
        <ele>277.0000000</ele>
        <time>2009-05-27T23:56:49Z</time>
      </trkpt>
      <trkpt lat="45.0212240" lon="-93.4279350">
        <ele>277.0000000</ele>
        <time>2009-05-27T23:56:50Z</time>
      </trkpt>
      <trkpt lat="45.0211120" lon="-93.4278630">
        <ele>277.4800000</ele>
        <time>2009-05-27T23:56:51Z</time>
      </trkpt>
      <trkpt lat="45.0209970" lon="-93.4278050">
        <ele>277.9600000</ele>
        <time>2009-05-27T23:56:52Z</time>
      </trkpt>
      <trkpt lat="45.0208820" lon="-93.4277480">
        <ele>277.9600000</ele>
        <time>2009-05-27T23:56:53Z</time>
      </trkpt>
      <trkpt lat="45.0205680" lon="-93.4275560">
        <ele>277.9600000</ele>
        <time>2009-05-27T23:56:56Z</time>
      </trkpt>
      <trkpt lat="45.0204750" lon="-93.4274810">
        <ele>277.9600000</ele>
        <time>2009-05-27T23:56:57Z</time>
      </trkpt>
      <trkpt lat="45.0204120" lon="-93.4273890">
        <ele>277.4800000</ele>
        <time>2009-05-27T23:56:58Z</time>
      </trkpt>
      <trkpt lat="45.0203430" lon="-93.4272860">
        <ele>277.4800000</ele>
        <time>2009-05-27T23:56:59Z</time>
      </trkpt>
      <trkpt lat="45.0202740" lon="-93.4271830">
        <ele>277.4800000</ele>
        <time>2009-05-27T23:57:00Z</time>
      </trkpt>
      <trkpt lat="45.0196940" lon="-93.4263800">
        <ele>277.9600000</ele>
        <time>2009-05-27T23:57:08Z</time>
      </trkpt>
      <trkpt lat="45.0195920" lon="-93.4263090">
        <ele>277.4800000</ele>
        <time>2009-05-27T23:57:09Z</time>
      </trkpt>
      <trkpt lat="45.0194850" lon="-93.4262550">
        <ele>277.4800000</ele>
        <time>2009-05-27T23:57:10Z</time>
      </trkpt>
      <trkpt lat="45.0193750" lon="-93.4262560">
        <ele>277.4800000</ele>
        <time>2009-05-27T23:57:11Z</time>
      </trkpt>
      <trkpt lat="45.0192690" lon="-93.4262910">
        <ele>276.5200000</ele>
        <time>2009-05-27T23:57:12Z</time>
      </trkpt>
      <trkpt lat="45.0191730" lon="-93.4263280">
        <ele>274.5900000</ele>
        <time>2009-05-27T23:57:13Z</time>
      </trkpt>
      <trkpt lat="45.0190770" lon="-93.4264060">
        <ele>273.1500000</ele>
        <time>2009-05-27T23:57:14Z</time>
      </trkpt>
      <trkpt lat="45.0189920" lon="-93.4264750">
        <ele>271.2300000</ele>
        <time>2009-05-27T23:57:15Z</time>
      </trkpt>
      <trkpt lat="45.0189140" lon="-93.4265370">
        <ele>270.7500000</ele>
        <time>2009-05-27T23:57:16Z</time>
      </trkpt>
      <trkpt lat="45.0182470" lon="-93.4271280">
        <ele>269.7900000</ele>
        <time>2009-05-27T23:57:28Z</time>
      </trkpt>
      <trkpt lat="45.0182160" lon="-93.4271950">
        <ele>270.7500000</ele>
        <time>2009-05-27T23:57:29Z</time>
      </trkpt>
      <trkpt lat="45.0181860" lon="-93.4272600">
        <ele>271.2300000</ele>
        <time>2009-05-27T23:57:30Z</time>
      </trkpt>
      <trkpt lat="45.0181570" lon="-93.4273250">
        <ele>271.7100000</ele>
        <time>2009-05-27T23:57:31Z</time>
      </trkpt>
      <trkpt lat="45.0181290" lon="-93.4273870">
        <ele>272.1900000</ele>
        <time>2009-05-27T23:57:32Z</time>
      </trkpt>
      <trkpt lat="45.0181010" lon="-93.4274480">
        <ele>272.6700000</ele>
        <time>2009-05-27T23:57:33Z</time>
      </trkpt>
      <trkpt lat="45.0180750" lon="-93.4275050">
        <ele>273.1500000</ele>
        <time>2009-05-27T23:57:34Z</time>
      </trkpt>
      <trkpt lat="45.0180680" lon="-93.4275720">
        <ele>274.1100000</ele>
        <time>2009-05-27T23:57:35Z</time>
      </trkpt>
      <trkpt lat="45.0180680" lon="-93.4276390">
        <ele>274.5900000</ele>
        <time>2009-05-27T23:57:36Z</time>
      </trkpt>
      <trkpt lat="45.0180680" lon="-93.4277050">
        <ele>275.0700000</ele>
        <time>2009-05-27T23:57:37Z</time>
      </trkpt>
      <trkpt lat="45.0180680" lon="-93.4277680">
        <ele>275.5600000</ele>
        <time>2009-05-27T23:57:38Z</time>
      </trkpt>
      <trkpt lat="45.0180680" lon="-93.4283530">
        <ele>280.3600000</ele>
        <time>2009-05-27T23:57:51Z</time>
      </trkpt>
      <trkpt lat="45.0180040" lon="-93.4285080">
        <ele>280.8400000</ele>
        <time>2009-05-27T23:58:03Z</time>
      </trkpt>
      <trkpt lat="45.0180040" lon="-93.4285080">
        <ele>281.3200000</ele>
        <time>2009-05-27T23:58:18Z</time>
      </trkpt>
      <trkpt lat="45.0180040" lon="-93.4285080">
        <ele>281.8000000</ele>
        <time>2009-05-27T23:58:42Z</time>
      </trkpt>
      <trkpt lat="45.0180680" lon="-93.4283020">
        <ele>276.5200000</ele>
        <time>2009-05-28T00:09:38Z</time>
      </trkpt>
      <trkpt lat="45.0180680" lon="-93.4282340">
        <ele>276.5200000</ele>
        <time>2009-05-28T00:09:39Z</time>
      </trkpt>
      <trkpt lat="45.0180760" lon="-93.4275030">
        <ele>276.0400000</ele>
        <time>2009-05-28T00:09:47Z</time>
      </trkpt>
      <trkpt lat="45.0181130" lon="-93.4274220">
        <ele>276.0400000</ele>
        <time>2009-05-28T00:09:48Z</time>
      </trkpt>
      <trkpt lat="45.0181510" lon="-93.4273380">
        <ele>276.0400000</ele>
        <time>2009-05-28T00:09:49Z</time>
      </trkpt>
      <trkpt lat="45.0181910" lon="-93.4272490">
        <ele>276.0400000</ele>
        <time>2009-05-28T00:09:50Z</time>
      </trkpt>
      <trkpt lat="45.0182330" lon="-93.4271580">
        <ele>276.0400000</ele>
        <time>2009-05-28T00:09:51Z</time>
      </trkpt>
      <trkpt lat="45.0182750" lon="-93.4270660">
        <ele>276.0400000</ele>
        <time>2009-05-28T00:09:52Z</time>
      </trkpt>
      <trkpt lat="45.0183350" lon="-93.4270060">
        <ele>276.0400000</ele>
        <time>2009-05-28T00:09:53Z</time>
      </trkpt>
      <trkpt lat="45.0184040" lon="-93.4269500">
        <ele>276.0400000</ele>
        <time>2009-05-28T00:09:54Z</time>
      </trkpt>
      <trkpt lat="45.0184780" lon="-93.4268910">
        <ele>276.0400000</ele>
        <time>2009-05-28T00:09:55Z</time>
      </trkpt>
      <trkpt lat="45.0193070" lon="-93.4262780">
        <ele>277.9600000</ele>
        <time>2009-05-28T00:10:05Z</time>
      </trkpt>
      <trkpt lat="45.0193830" lon="-93.4262530">
        <ele>278.4400000</ele>
        <time>2009-05-28T00:10:06Z</time>
      </trkpt>
      <trkpt lat="45.0194510" lon="-93.4262380">
        <ele>278.4400000</ele>
        <time>2009-05-28T00:10:07Z</time>
      </trkpt>
      <trkpt lat="45.0195160" lon="-93.4262710">
        <ele>278.9200000</ele>
        <time>2009-05-28T00:10:08Z</time>
      </trkpt>
      <trkpt lat="45.0195810" lon="-93.4263030">
        <ele>279.8800000</ele>
        <time>2009-05-28T00:10:09Z</time>
      </trkpt>
      <trkpt lat="45.0196410" lon="-93.4263400">
        <ele>280.8400000</ele>
        <time>2009-05-28T00:10:10Z</time>
      </trkpt>
      <trkpt lat="45.0197030" lon="-93.4263870">
        <ele>280.8400000</ele>
        <time>2009-05-28T00:10:11Z</time>
      </trkpt>
      <trkpt lat="45.0197660" lon="-93.4264350">
        <ele>280.8400000</ele>
        <time>2009-05-28T00:10:12Z</time>
      </trkpt>
      <trkpt lat="45.0198160" lon="-93.4264950">
        <ele>280.8400000</ele>
        <time>2009-05-28T00:10:13Z</time>
      </trkpt>
      <trkpt lat="45.0198670" lon="-93.4265720">
        <ele>280.8400000</ele>
        <time>2009-05-28T00:10:14Z</time>
      </trkpt>
      <trkpt lat="45.0204980" lon="-93.4274990">
        <ele>282.7700000</ele>
        <time>2009-05-28T00:10:25Z</time>
      </trkpt>
      <trkpt lat="45.0205740" lon="-93.4275600">
        <ele>283.2500000</ele>
        <time>2009-05-28T00:10:26Z</time>
      </trkpt>
      <trkpt lat="45.0206520" lon="-93.4276220">
        <ele>283.7300000</ele>
        <time>2009-05-28T00:10:27Z</time>
      </trkpt>
      <trkpt lat="45.0207320" lon="-93.4276730">
        <ele>284.6900000</ele>
        <time>2009-05-28T00:10:28Z</time>
      </trkpt>
      <trkpt lat="45.0208180" lon="-93.4277160">
        <ele>284.2100000</ele>
        <time>2009-05-28T00:10:29Z</time>
      </trkpt>
      <trkpt lat="45.0209080" lon="-93.4277610">
        <ele>284.6900000</ele>
        <time>2009-05-28T00:10:30Z</time>
      </trkpt>
      <trkpt lat="45.0212510" lon="-93.4279680">
        <ele>285.1700000</ele>
        <time>2009-05-28T00:10:34Z</time>
      </trkpt>
      <trkpt lat="45.0213210" lon="-93.4280510">
        <ele>285.1700000</ele>
        <time>2009-05-28T00:10:35Z</time>
      </trkpt>
      <trkpt lat="45.0213920" lon="-93.4281370">
        <ele>284.2100000</ele>
        <time>2009-05-28T00:10:36Z</time>
      </trkpt>
      <trkpt lat="45.0214280" lon="-93.4282510">
        <ele>283.7300000</ele>
        <time>2009-05-28T00:10:37Z</time>
      </trkpt>
      <trkpt lat="45.0214440" lon="-93.4283690">
        <ele>283.2500000</ele>
        <time>2009-05-28T00:10:38Z</time>
      </trkpt>
      <trkpt lat="45.0214580" lon="-93.4284650">
        <ele>282.7700000</ele>
        <time>2009-05-28T00:10:39Z</time>
      </trkpt>
      <trkpt lat="45.0214520" lon="-93.4285670">
        <ele>281.8000000</ele>
        <time>2009-05-28T00:10:40Z</time>
      </trkpt>
      <trkpt lat="45.0214440" lon="-93.4286990">
        <ele>281.8000000</ele>
        <time>2009-05-28T00:10:41Z</time>
      </trkpt>
      <trkpt lat="45.0214170" lon="-93.4292100">
        <ele>280.3600000</ele>
        <time>2009-05-28T00:10:44Z</time>
      </trkpt>
      <trkpt lat="45.0214380" lon="-93.4293750">
        <ele>279.8800000</ele>
        <time>2009-05-28T00:10:45Z</time>
      </trkpt>
      <trkpt lat="45.0214580" lon="-93.4295360">
        <ele>279.4000000</ele>
        <time>2009-05-28T00:10:46Z</time>
      </trkpt>
      <trkpt lat="45.0217000" lon="-93.4309730">
        <ele>278.9200000</ele>
        <time>2009-05-28T00:10:55Z</time>
      </trkpt>
      <trkpt lat="45.0217540" lon="-93.4310940">
        <ele>278.9200000</ele>
        <time>2009-05-28T00:10:56Z</time>
      </trkpt>
      <trkpt lat="45.0218880" lon="-93.4314280">
        <ele>280.8400000</ele>
        <time>2009-05-28T00:10:59Z</time>
      </trkpt>
      <trkpt lat="45.0219220" lon="-93.4315300">
        <ele>281.3200000</ele>
        <time>2009-05-28T00:11:00Z</time>
      </trkpt>
      <trkpt lat="45.0219300" lon="-93.4316300">
        <ele>281.3200000</ele>
        <time>2009-05-28T00:11:01Z</time>
      </trkpt>
      <trkpt lat="45.0219300" lon="-93.4317200">
        <ele>280.8400000</ele>
        <time>2009-05-28T00:11:02Z</time>
      </trkpt>
      <trkpt lat="45.0219300" lon="-93.4317940">
        <ele>280.8400000</ele>
        <time>2009-05-28T00:11:03Z</time>
      </trkpt>
      <trkpt lat="45.0219300" lon="-93.4320610">
        <ele>279.4000000</ele>
        <time>2009-05-28T00:11:13Z</time>
      </trkpt>
      <trkpt lat="45.0219300" lon="-93.4323720">
        <ele>281.8000000</ele>
        <time>2009-05-28T00:11:24Z</time>
      </trkpt>
      <trkpt lat="45.0219300" lon="-93.4326470">
        <ele>282.2800000</ele>
        <time>2009-05-28T00:11:35Z</time>
      </trkpt>
      <trkpt lat="45.0219300" lon="-93.4334000">
        <ele>285.6500000</ele>
        <time>2009-05-28T00:11:43Z</time>
      </trkpt>
      <trkpt lat="45.0219300" lon="-93.4336780">
        <ele>286.6100000</ele>
        <time>2009-05-28T00:11:45Z</time>
      </trkpt>
      <trkpt lat="45.0219420" lon="-93.4338510">
        <ele>287.0900000</ele>
        <time>2009-05-28T00:11:46Z</time>
      </trkpt>
      <trkpt lat="45.0220050" lon="-93.4339640">
        <ele>288.0500000</ele>
        <time>2009-05-28T00:11:47Z</time>
      </trkpt>
      <trkpt lat="45.0220690" lon="-93.4340790">
        <ele>288.5300000</ele>
        <time>2009-05-28T00:11:48Z</time>
      </trkpt>
      <trkpt lat="45.0221320" lon="-93.4341920">
        <ele>289.4900000</ele>
        <time>2009-05-28T00:11:49Z</time>
      </trkpt>
      <trkpt lat="45.0222220" lon="-93.4342730">
        <ele>290.4600000</ele>
        <time>2009-05-28T00:11:50Z</time>
      </trkpt>
      <trkpt lat="45.0223210" lon="-93.4343440">
        <ele>290.9400000</ele>
        <time>2009-05-28T00:11:51Z</time>
      </trkpt>
      <trkpt lat="45.0224270" lon="-93.4343440">
        <ele>291.4200000</ele>
        <time>2009-05-28T00:11:52Z</time>
      </trkpt>
      <trkpt lat="45.0225360" lon="-93.4343440">
        <ele>292.3800000</ele>
        <time>2009-05-28T00:11:53Z</time>
      </trkpt>
      <trkpt lat="45.0226460" lon="-93.4343320">
        <ele>292.8600000</ele>
        <time>2009-05-28T00:11:54Z</time>
      </trkpt>
      <trkpt lat="45.0227570" lon="-93.4342830">
        <ele>293.3400000</ele>
        <time>2009-05-28T00:11:55Z</time>
      </trkpt>
      <trkpt lat="45.0228730" lon="-93.4342330">
        <ele>293.8200000</ele>
        <time>2009-05-28T00:11:56Z</time>
      </trkpt>
      <trkpt lat="45.0242230" lon="-93.4338580">
        <ele>298.6300000</ele>
        <time>2009-05-28T00:12:06Z</time>
      </trkpt>
      <trkpt lat="45.0244940" lon="-93.4338530">
        <ele>298.6300000</ele>
        <time>2009-05-28T00:12:08Z</time>
      </trkpt>
      <trkpt lat="45.0246190" lon="-93.4338890">
        <ele>298.1500000</ele>
        <time>2009-05-28T00:12:09Z</time>
      </trkpt>
      <trkpt lat="45.0247470" lon="-93.4339610">
        <ele>297.1800000</ele>
        <time>2009-05-28T00:12:10Z</time>
      </trkpt>
      <trkpt lat="45.0248760" lon="-93.4340350">
        <ele>295.7400000</ele>
        <time>2009-05-28T00:12:11Z</time>
      </trkpt>
      <trkpt lat="45.0249690" lon="-93.4341640">
        <ele>294.3000000</ele>
        <time>2009-05-28T00:12:12Z</time>
      </trkpt>
      <trkpt lat="45.0250670" lon="-93.4343160">
        <ele>292.8600000</ele>
        <time>2009-05-28T00:12:13Z</time>
      </trkpt>
      <trkpt lat="45.0251660" lon="-93.4344700">
        <ele>291.4200000</ele>
        <time>2009-05-28T00:12:14Z</time>
      </trkpt>
      <trkpt lat="45.0252690" lon="-93.4346290">
        <ele>289.9700000</ele>
        <time>2009-05-28T00:12:15Z</time>
      </trkpt>
      <trkpt lat="45.0259080" lon="-93.4355320">
        <ele>282.7700000</ele>
        <time>2009-05-28T00:12:21Z</time>
      </trkpt>
      <trkpt lat="45.0260300" lon="-93.4356270">
        <ele>281.8000000</ele>
        <time>2009-05-28T00:12:22Z</time>
      </trkpt>
      <trkpt lat="45.0261590" lon="-93.4357020">
        <ele>281.3200000</ele>
        <time>2009-05-28T00:12:23Z</time>
      </trkpt>
      <trkpt lat="45.0262860" lon="-93.4357770">
        <ele>281.3200000</ele>
        <time>2009-05-28T00:12:24Z</time>
      </trkpt>
      <trkpt lat="45.0264120" lon="-93.4358500">
        <ele>281.3200000</ele>
        <time>2009-05-28T00:12:25Z</time>
      </trkpt>
      <trkpt lat="45.0269680" lon="-93.4363890">
        <ele>281.8000000</ele>
        <time>2009-05-28T00:12:30Z</time>
      </trkpt>
      <trkpt lat="45.0270720" lon="-93.4365220">
        <ele>282.2800000</ele>
        <time>2009-05-28T00:12:31Z</time>
      </trkpt>
      <trkpt lat="45.0271400" lon="-93.4366870">
        <ele>282.2800000</ele>
        <time>2009-05-28T00:12:32Z</time>
      </trkpt>
      <trkpt lat="45.0272070" lon="-93.4368560">
        <ele>282.2800000</ele>
        <time>2009-05-28T00:12:33Z</time>
      </trkpt>
      <trkpt lat="45.0272720" lon="-93.4370230">
        <ele>282.2800000</ele>
        <time>2009-05-28T00:12:34Z</time>
      </trkpt>
      <trkpt lat="45.0273370" lon="-93.4371870">
        <ele>282.2800000</ele>
        <time>2009-05-28T00:12:35Z</time>
      </trkpt>
      <trkpt lat="45.0274610" lon="-93.4375020">
        <ele>282.2800000</ele>
        <time>2009-05-28T00:12:37Z</time>
      </trkpt>
      <trkpt lat="45.0275150" lon="-93.4376400">
        <ele>281.8000000</ele>
        <time>2009-05-28T00:12:38Z</time>
      </trkpt>
      <trkpt lat="45.0275780" lon="-93.4377540">
        <ele>281.8000000</ele>
        <time>2009-05-28T00:12:39Z</time>
      </trkpt>
      <trkpt lat="45.0276610" lon="-93.4378160">
        <ele>281.8000000</ele>
        <time>2009-05-28T00:12:40Z</time>
      </trkpt>
      <trkpt lat="45.0277410" lon="-93.4378760">
        <ele>281.8000000</ele>
        <time>2009-05-28T00:12:41Z</time>
      </trkpt>
      <trkpt lat="45.0278190" lon="-93.4379350">
        <ele>281.3200000</ele>
        <time>2009-05-28T00:12:42Z</time>
      </trkpt>
      <trkpt lat="45.0286200" lon="-93.4382530">
        <ele>282.7700000</ele>
        <time>2009-05-28T00:12:52Z</time>
      </trkpt>
      <trkpt lat="45.0294110" lon="-93.4385140">
        <ele>285.6500000</ele>
        <time>2009-05-28T00:13:03Z</time>
      </trkpt>
      <trkpt lat="45.0300810" lon="-93.4386060">
        <ele>288.5300000</ele>
        <time>2009-05-28T00:13:12Z</time>
      </trkpt>
      <trkpt lat="45.0301550" lon="-93.4386310">
        <ele>289.0100000</ele>
        <time>2009-05-28T00:13:13Z</time>
      </trkpt>
      <trkpt lat="45.0308300" lon="-93.4391200">
        <ele>290.9400000</ele>
        <time>2009-05-28T00:13:25Z</time>
      </trkpt>
      <trkpt lat="45.0309850" lon="-93.4391080">
        <ele>290.9400000</ele>
        <time>2009-05-28T00:13:27Z</time>
      </trkpt>
      <trkpt lat="45.0310520" lon="-93.4391080">
        <ele>291.9000000</ele>
        <time>2009-05-28T00:13:28Z</time>
      </trkpt>
      <trkpt lat="45.0311060" lon="-93.4390650">
        <ele>291.9000000</ele>
        <time>2009-05-28T00:13:29Z</time>
      </trkpt>
      <trkpt lat="45.0311540" lon="-93.4390050">
        <ele>291.9000000</ele>
        <time>2009-05-28T00:13:30Z</time>
      </trkpt>
      <trkpt lat="45.0312080" lon="-93.4389370">
        <ele>292.3800000</ele>
        <time>2009-05-28T00:13:31Z</time>
      </trkpt>
      <trkpt lat="45.0312640" lon="-93.4388240">
        <ele>292.3800000</ele>
        <time>2009-05-28T00:13:32Z</time>
      </trkpt>
      <trkpt lat="45.0313090" lon="-93.4386780">
        <ele>292.3800000</ele>
        <time>2009-05-28T00:13:33Z</time>
      </trkpt>
      <trkpt lat="45.0317520" lon="-93.4372390">
        <ele>292.8600000</ele>
        <time>2009-05-28T00:13:40Z</time>
      </trkpt>
      <trkpt lat="45.0321950" lon="-93.4353150">
        <ele>292.3800000</ele>
        <time>2009-05-28T00:13:50Z</time>
      </trkpt>
      <trkpt lat="45.0323240" lon="-93.4347540">
        <ele>291.9000000</ele>
        <time>2009-05-28T00:13:56Z</time>
      </trkpt>
      <trkpt lat="45.0323350" lon="-93.4347050">
        <ele>291.4200000</ele>
        <time>2009-05-28T00:14:03Z</time>
      </trkpt>
      <trkpt lat="45.0324430" lon="-93.4343480">
        <ele>291.4200000</ele>
        <time>2009-05-28T00:14:22Z</time>
      </trkpt>
      <trkpt lat="45.0326870" lon="-93.4332300">
        <ele>289.9700000</ele>
        <time>2009-05-28T00:14:29Z</time>
      </trkpt>
      <trkpt lat="45.0332860" lon="-93.4302250">
        <ele>291.9000000</ele>
        <time>2009-05-28T00:14:43Z</time>
      </trkpt>
      <trkpt lat="45.0334740" lon="-93.4274390">
        <ele>295.7400000</ele>
        <time>2009-05-28T00:14:55Z</time>
      </trkpt>
      <trkpt lat="45.0333240" lon="-93.4244850">
        <ele>301.9900000</ele>
        <time>2009-05-28T00:15:06Z</time>
      </trkpt>
      <trkpt lat="45.0330900" lon="-93.4213570">
        <ele>305.3600000</ele>
        <time>2009-05-28T00:15:20Z</time>
      </trkpt>
      <trkpt lat="45.0329990" lon="-93.4210740">
        <ele>304.8800000</ele>
        <time>2009-05-28T00:15:22Z</time>
      </trkpt>
      <trkpt lat="45.0329620" lon="-93.4209610">
        <ele>304.3900000</ele>
        <time>2009-05-28T00:15:23Z</time>
      </trkpt>
      <trkpt lat="45.0328830" lon="-93.4208780">
        <ele>303.9100000</ele>
        <time>2009-05-28T00:15:24Z</time>
      </trkpt>
      <trkpt lat="45.0327600" lon="-93.4208620">
        <ele>302.9500000</ele>
        <time>2009-05-28T00:15:25Z</time>
      </trkpt>
      <trkpt lat="45.0326440" lon="-93.4208540">
        <ele>301.9900000</ele>
        <time>2009-05-28T00:15:26Z</time>
      </trkpt>
      <trkpt lat="45.0325280" lon="-93.4208460">
        <ele>301.5100000</ele>
        <time>2009-05-28T00:15:27Z</time>
      </trkpt>
      <trkpt lat="45.0308850" lon="-93.4207660">
        <ele>294.3000000</ele>
        <time>2009-05-28T00:15:41Z</time>
      </trkpt>
      <trkpt lat="45.0292690" lon="-93.4208380">
        <ele>288.0500000</ele>
        <time>2009-05-28T00:15:56Z</time>
      </trkpt>
      <trkpt lat="45.0288970" lon="-93.4208550">
        <ele>286.1300000</ele>
        <time>2009-05-28T00:16:06Z</time>
      </trkpt>
      <trkpt lat="45.0286700" lon="-93.4208650">
        <ele>285.1700000</ele>
        <time>2009-05-28T00:16:18Z</time>
      </trkpt>
      <trkpt lat="45.0284560" lon="-93.4208750">
        <ele>283.2500000</ele>
        <time>2009-05-28T00:16:33Z</time>
      </trkpt>
      <trkpt lat="45.0281800" lon="-93.4208890">
        <ele>282.2800000</ele>
        <time>2009-05-28T00:16:45Z</time>
      </trkpt>
      <trkpt lat="45.0274640" lon="-93.4209030">
        <ele>282.7700000</ele>
        <time>2009-05-28T00:16:57Z</time>
      </trkpt>
      <trkpt lat="45.0266380" lon="-93.4208730">
        <ele>283.7300000</ele>
        <time>2009-05-28T00:17:06Z</time>
      </trkpt>
      <trkpt lat="45.0254300" lon="-93.4207590">
        <ele>284.6900000</ele>
        <time>2009-05-28T00:17:18Z</time>
      </trkpt>
      <trkpt lat="45.0234650" lon="-93.4208260">
        <ele>286.1300000</ele>
        <time>2009-05-28T00:17:34Z</time>
      </trkpt>
      <trkpt lat="45.0227220" lon="-93.4208050">
        <ele>287.0900000</ele>
        <time>2009-05-28T00:17:42Z</time>
      </trkpt>
      <trkpt lat="45.0224370" lon="-93.4207970">
        <ele>288.5300000</ele>
        <time>2009-05-28T00:17:51Z</time>
      </trkpt>
      <trkpt lat="45.0222130" lon="-93.4207910">
        <ele>289.4900000</ele>
        <time>2009-05-28T00:17:59Z</time>
      </trkpt>
      <trkpt lat="45.0219950" lon="-93.4207850">
        <ele>290.4600000</ele>
        <time>2009-05-28T00:18:09Z</time>
      </trkpt>
      <trkpt lat="45.0215680" lon="-93.4207750">
        <ele>290.4600000</ele>
        <time>2009-05-28T00:18:15Z</time>
      </trkpt>
      <trkpt lat="45.0198740" lon="-93.4207370">
        <ele>282.7700000</ele>
        <time>2009-05-28T00:18:28Z</time>
      </trkpt>
      <trkpt lat="45.0179970" lon="-93.4206590">
        <ele>271.2300000</ele>
        <time>2009-05-28T00:18:42Z</time>
      </trkpt>
      <trkpt lat="45.0178720" lon="-93.4205910">
        <ele>270.2700000</ele>
        <time>2009-05-28T00:18:43Z</time>
      </trkpt>
      <trkpt lat="45.0177450" lon="-93.4205210">
        <ele>270.2700000</ele>
        <time>2009-05-28T00:18:44Z</time>
      </trkpt>
      <trkpt lat="45.0176200" lon="-93.4204530">
        <ele>269.7900000</ele>
        <time>2009-05-28T00:18:45Z</time>
      </trkpt>
      <trkpt lat="45.0175110" lon="-93.4203510">
        <ele>269.3100000</ele>
        <time>2009-05-28T00:18:46Z</time>
      </trkpt>
      <trkpt lat="45.0174000" lon="-93.4202340">
        <ele>268.8300000</ele>
        <time>2009-05-28T00:18:47Z</time>
      </trkpt>
      <trkpt lat="45.0159890" lon="-93.4186180">
        <ele>273.6300000</ele>
        <time>2009-05-28T00:19:00Z</time>
      </trkpt>
      <trkpt lat="45.0148350" lon="-93.4172090">
        <ele>279.4000000</ele>
        <time>2009-05-28T00:19:13Z</time>
      </trkpt>
      <trkpt lat="45.0136890" lon="-93.4160970">
        <ele>282.7700000</ele>
        <time>2009-05-28T00:19:27Z</time>
      </trkpt>
      <trkpt lat="45.0128950" lon="-93.4152240">
        <ele>284.6900000</ele>
        <time>2009-05-28T00:19:38Z</time>
      </trkpt>
      <trkpt lat="45.0123310" lon="-93.4140260">
        <ele>287.5700000</ele>
        <time>2009-05-28T00:19:49Z</time>
      </trkpt>
      <trkpt lat="45.0121840" lon="-93.4137110">
        <ele>287.5700000</ele>
        <time>2009-05-28T00:19:56Z</time>
      </trkpt>
      <trkpt lat="45.0119990" lon="-93.4133780">
        <ele>286.1300000</ele>
        <time>2009-05-28T00:20:08Z</time>
      </trkpt>
      <trkpt lat="45.0114860" lon="-93.4128170">
        <ele>286.6100000</ele>
        <time>2009-05-28T00:20:15Z</time>
      </trkpt>
      <trkpt lat="45.0101540" lon="-93.4114160">
        <ele>288.5300000</ele>
        <time>2009-05-28T00:20:27Z</time>
      </trkpt>
      <trkpt lat="45.0091650" lon="-93.4105350">
        <ele>285.6500000</ele>
        <time>2009-05-28T00:20:36Z</time>
      </trkpt>
      <trkpt lat="45.0086630" lon="-93.4093710">
        <ele>285.1700000</ele>
        <time>2009-05-28T00:20:45Z</time>
      </trkpt>
      <trkpt lat="45.0084450" lon="-93.4089040">
        <ele>285.1700000</ele>
        <time>2009-05-28T00:20:49Z</time>
      </trkpt>
      <trkpt lat="45.0083810" lon="-93.4087890">
        <ele>285.1700000</ele>
        <time>2009-05-28T00:20:50Z</time>
      </trkpt>
      <trkpt lat="45.0083140" lon="-93.4086850">
        <ele>285.1700000</ele>
        <time>2009-05-28T00:20:51Z</time>
      </trkpt>
      <trkpt lat="45.0082380" lon="-93.4086190">
        <ele>285.1700000</ele>
        <time>2009-05-28T00:20:52Z</time>
      </trkpt>
      <trkpt lat="45.0081430" lon="-93.4085780">
        <ele>285.1700000</ele>
        <time>2009-05-28T00:20:53Z</time>
      </trkpt>
      <trkpt lat="45.0080490" lon="-93.4085380">
        <ele>285.1700000</ele>
        <time>2009-05-28T00:20:54Z</time>
      </trkpt>
      <trkpt lat="45.0079740" lon="-93.4085090">
        <ele>284.6900000</ele>
        <time>2009-05-28T00:20:55Z</time>
      </trkpt>
      <trkpt lat="45.0079050" lon="-93.4085090">
        <ele>284.6900000</ele>
        <time>2009-05-28T00:20:56Z</time>
      </trkpt>
      <trkpt lat="45.0078600" lon="-93.4085090">
        <ele>284.6900000</ele>
        <time>2009-05-28T00:20:57Z</time>
      </trkpt>
      <trkpt lat="45.0076410" lon="-93.4085090">
        <ele>283.2500000</ele>
        <time>2009-05-28T00:21:07Z</time>
      </trkpt>
      <trkpt lat="45.0074750" lon="-93.4084740">
        <ele>282.2800000</ele>
        <time>2009-05-28T00:21:12Z</time>
      </trkpt>
      <trkpt lat="45.0074370" lon="-93.4084350">
        <ele>282.2800000</ele>
        <time>2009-05-28T00:21:13Z</time>
      </trkpt>
      <trkpt lat="45.0075110" lon="-93.4083000">
        <ele>282.2800000</ele>
        <time>2009-05-28T00:21:14Z</time>
      </trkpt>
      <trkpt lat="45.0075110" lon="-93.4081900">
        <ele>282.7700000</ele>
        <time>2009-05-28T00:21:15Z</time>
      </trkpt>
      <trkpt lat="45.0075110" lon="-93.4080530">
        <ele>282.7700000</ele>
        <time>2009-05-28T00:21:16Z</time>
      </trkpt>
      <trkpt lat="45.0075110" lon="-93.4066170">
        <ele>285.1700000</ele>
        <time>2009-05-28T00:21:23Z</time>
      </trkpt>
      <trkpt lat="45.0074910" lon="-93.4045610">
        <ele>288.5300000</ele>
        <time>2009-05-28T00:21:33Z</time>
      </trkpt>
      <trkpt lat="45.0074720" lon="-93.4034230">
        <ele>289.9700000</ele>
        <time>2009-05-28T00:21:44Z</time>
      </trkpt>
      <trkpt lat="45.0074680" lon="-93.4031230">
        <ele>291.4200000</ele>
        <time>2009-05-28T00:21:56Z</time>
      </trkpt>
      <trkpt lat="45.0074680" lon="-93.4024880">
        <ele>293.8200000</ele>
        <time>2009-05-28T00:22:04Z</time>
      </trkpt>
      <trkpt lat="45.0074680" lon="-93.4023860">
        <ele>294.7800000</ele>
        <time>2009-05-28T00:22:07Z</time>
      </trkpt>
      <trkpt lat="45.0073540" lon="-93.4022680">
        <ele>294.7800000</ele>
        <time>2009-05-28T00:22:08Z</time>
      </trkpt>
      <trkpt lat="45.0072820" lon="-93.4022560">
        <ele>294.7800000</ele>
        <time>2009-05-28T00:22:09Z</time>
      </trkpt>
      <trkpt lat="45.0071260" lon="-93.4022010">
        <ele>294.3000000</ele>
        <time>2009-05-28T00:22:11Z</time>
      </trkpt>
      <trkpt lat="45.0070260" lon="-93.4021520">
        <ele>293.8200000</ele>
        <time>2009-05-28T00:22:12Z</time>
      </trkpt>
      <trkpt lat="45.0069280" lon="-93.4020830">
        <ele>293.3400000</ele>
        <time>2009-05-28T00:22:13Z</time>
      </trkpt>
      <trkpt lat="45.0068380" lon="-93.4019660">
        <ele>292.8600000</ele>
        <time>2009-05-28T00:22:14Z</time>
      </trkpt>
      <trkpt lat="45.0067460" lon="-93.4018470">
        <ele>291.9000000</ele>
        <time>2009-05-28T00:22:15Z</time>
      </trkpt>
      <trkpt lat="45.0063330" lon="-93.4014210">
        <ele>289.0100000</ele>
        <time>2009-05-28T00:22:19Z</time>
      </trkpt>
      <trkpt lat="45.0062040" lon="-93.4013390">
        <ele>288.0500000</ele>
        <time>2009-05-28T00:22:20Z</time>
      </trkpt>
      <trkpt lat="45.0060720" lon="-93.4013190">
        <ele>287.0900000</ele>
        <time>2009-05-28T00:22:21Z</time>
      </trkpt>
      <trkpt lat="45.0059380" lon="-93.4012990">
        <ele>286.6100000</ele>
        <time>2009-05-28T00:22:22Z</time>
      </trkpt>
      <trkpt lat="45.0058030" lon="-93.4012780">
        <ele>286.1300000</ele>
        <time>2009-05-28T00:22:23Z</time>
      </trkpt>
      <trkpt lat="45.0056650" lon="-93.4012570">
        <ele>285.6500000</ele>
        <time>2009-05-28T00:22:24Z</time>
      </trkpt>
      <trkpt lat="45.0035150" lon="-93.4012570">
        <ele>283.7300000</ele>
        <time>2009-05-28T00:22:41Z</time>
      </trkpt>
      <trkpt lat="45.0025760" lon="-93.4012570">
        <ele>287.5700000</ele>
        <time>2009-05-28T00:22:51Z</time>
      </trkpt>
      <trkpt lat="45.0012430" lon="-93.4013430">
        <ele>288.5300000</ele>
        <time>2009-05-28T00:23:04Z</time>
      </trkpt>
      <trkpt lat="44.9995860" lon="-93.4012750">
        <ele>277.9600000</ele>
        <time>2009-05-28T00:23:20Z</time>
      </trkpt>
      <trkpt lat="44.9992560" lon="-93.4012560">
        <ele>275.5600000</ele>
        <time>2009-05-28T00:23:27Z</time>
      </trkpt>
      <trkpt lat="44.9992710" lon="-93.4013630">
        <ele>275.0700000</ele>
        <time>2009-05-28T00:23:28Z</time>
      </trkpt>
      <trkpt lat="44.9992710" lon="-93.4014220">
        <ele>274.5900000</ele>
        <time>2009-05-28T00:23:29Z</time>
      </trkpt>
      <trkpt lat="44.9992710" lon="-93.4014960">
        <ele>274.1100000</ele>
        <time>2009-05-28T00:23:30Z</time>
      </trkpt>
      <trkpt lat="44.9992710" lon="-93.4015840">
        <ele>273.6300000</ele>
        <time>2009-05-28T00:23:31Z</time>
      </trkpt>
      <trkpt lat="44.9993020" lon="-93.4025080">
        <ele>269.7900000</ele>
        <time>2009-05-28T00:23:41Z</time>
      </trkpt>
      <trkpt lat="44.9993090" lon="-93.4025810">
        <ele>269.7900000</ele>
        <time>2009-05-28T00:23:42Z</time>
      </trkpt>
      <trkpt lat="44.9993140" lon="-93.4026300">
        <ele>269.7900000</ele>
        <time>2009-05-28T00:23:43Z</time>
      </trkpt>
      <trkpt lat="44.9993650" lon="-93.4026300">
        <ele>269.3100000</ele>
        <time>2009-05-28T00:23:44Z</time>
      </trkpt>
      <trkpt lat="44.9994250" lon="-93.4026300">
        <ele>269.3100000</ele>
        <time>2009-05-28T00:23:45Z</time>
      </trkpt>
      <trkpt lat="44.9994920" lon="-93.4026300">
        <ele>270.2700000</ele>
        <time>2009-05-28T00:23:46Z</time>
      </trkpt>
      <trkpt lat="44.9995610" lon="-93.4026300">
        <ele>270.7500000</ele>
        <time>2009-05-28T00:23:47Z</time>
      </trkpt>
      <trkpt lat="44.9997620" lon="-93.4026300">
        <ele>271.2300000</ele>
        <time>2009-05-28T00:23:50Z</time>
      </trkpt>
      <trkpt lat="44.9998290" lon="-93.4026300">
        <ele>271.2300000</ele>
        <time>2009-05-28T00:23:51Z</time>
      </trkpt>
      <trkpt lat="44.9998940" lon="-93.4026420">
        <ele>271.7100000</ele>
        <time>2009-05-28T00:23:52Z</time>
      </trkpt>
      <trkpt lat="44.9999520" lon="-93.4026750">
        <ele>272.1900000</ele>
        <time>2009-05-28T00:23:53Z</time>
      </trkpt>
      <trkpt lat="45.0000080" lon="-93.4027070">
        <ele>272.1900000</ele>
        <time>2009-05-28T00:23:54Z</time>
      </trkpt>
      <trkpt lat="45.0008710" lon="-93.4032040">
        <ele>276.0400000</ele>
        <time>2009-05-28T00:24:10Z</time>
      </trkpt>
      <trkpt lat="45.0009410" lon="-93.4032460">
        <ele>276.0400000</ele>
        <time>2009-05-28T00:24:11Z</time>
      </trkpt>
      <trkpt lat="45.0019530" lon="-93.4036140">
        <ele>278.9200000</ele>
        <time>2009-05-28T00:24:23Z</time>
      </trkpt>
      <trkpt lat="45.0022410" lon="-93.4035900">
        <ele>279.4000000</ele>
        <time>2009-05-28T00:24:26Z</time>
      </trkpt>
      <trkpt lat="45.0023370" lon="-93.4035810">
        <ele>278.9200000</ele>
        <time>2009-05-28T00:24:27Z</time>
      </trkpt>
      <trkpt lat="45.0024460" lon="-93.4035380">
        <ele>278.9200000</ele>
        <time>2009-05-28T00:24:28Z</time>
      </trkpt>
      <trkpt lat="45.0025400" lon="-93.4034570">
        <ele>278.9200000</ele>
        <time>2009-05-28T00:24:29Z</time>
      </trkpt>
      <trkpt lat="45.0026300" lon="-93.4033800">
        <ele>278.9200000</ele>
        <time>2009-05-28T00:24:30Z</time>
      </trkpt>
      <trkpt lat="45.0034910" lon="-93.4029090">
        <ele>281.3200000</ele>
        <time>2009-05-28T00:24:40Z</time>
      </trkpt>
      <trkpt lat="45.0035700" lon="-93.4028940">
        <ele>281.3200000</ele>
        <time>2009-05-28T00:24:41Z</time>
      </trkpt>
      <trkpt lat="45.0036400" lon="-93.4029540">
        <ele>280.8400000</ele>
        <time>2009-05-28T00:24:42Z</time>
      </trkpt>
      <trkpt lat="45.0037140" lon="-93.4030170">
        <ele>280.8400000</ele>
        <time>2009-05-28T00:24:43Z</time>
      </trkpt>
      <trkpt lat="45.0037910" lon="-93.4030830">
        <ele>280.8400000</ele>
        <time>2009-05-28T00:24:44Z</time>
      </trkpt>
      <trkpt lat="45.0038630" lon="-93.4031450">
        <ele>280.3600000</ele>
        <time>2009-05-28T00:24:45Z</time>
      </trkpt>
      <trkpt lat="45.0039150" lon="-93.4032310">
        <ele>280.3600000</ele>
        <time>2009-05-28T00:24:46Z</time>
      </trkpt>
      <trkpt lat="45.0039740" lon="-93.4033300">
        <ele>280.3600000</ele>
        <time>2009-05-28T00:24:47Z</time>
      </trkpt>
      <trkpt lat="45.0039920" lon="-93.4033600">
        <ele>280.3600000</ele>
        <time>2009-05-28T00:24:48Z</time>
      </trkpt>
      <trkpt lat="45.0040830" lon="-93.4035380">
        <ele>280.3600000</ele>
        <time>2009-05-28T00:24:49Z</time>
      </trkpt>
      <trkpt lat="45.0047550" lon="-93.4048630">
        <ele>279.8800000</ele>
        <time>2009-05-28T00:25:03Z</time>
      </trkpt>
      <trkpt lat="45.0052550" lon="-93.4058460">
        <ele>280.3600000</ele>
        <time>2009-05-28T00:25:16Z</time>
      </trkpt>
      <trkpt lat="45.0059090" lon="-93.4071720">
        <ele>279.8800000</ele>
        <time>2009-05-28T00:25:28Z</time>
      </trkpt>
      <trkpt lat="45.0066800" lon="-93.4086680">
        <ele>281.3200000</ele>
        <time>2009-05-28T00:25:42Z</time>
      </trkpt>
      <trkpt lat="45.0072320" lon="-93.4095790">
        <ele>281.3200000</ele>
        <time>2009-05-28T00:25:55Z</time>
      </trkpt>
      <trkpt lat="45.0074780" lon="-93.4099850">
        <ele>280.8400000</ele>
        <time>2009-05-28T00:26:07Z</time>
      </trkpt>
      <trkpt lat="45.0079860" lon="-93.4107900">
        <ele>279.8800000</ele>
        <time>2009-05-28T00:26:15Z</time>
      </trkpt>
      <trkpt lat="45.0090530" lon="-93.4122660">
        <ele>279.4000000</ele>
        <time>2009-05-28T00:26:29Z</time>
      </trkpt>
      <trkpt lat="45.0103820" lon="-93.4138150">
        <ele>279.8800000</ele>
        <time>2009-05-28T00:26:46Z</time>
      </trkpt>
      <trkpt lat="45.0112180" lon="-93.4143780">
        <ele>281.8000000</ele>
        <time>2009-05-28T00:26:56Z</time>
      </trkpt>
      <trkpt lat="45.0121580" lon="-93.4148370">
        <ele>289.4900000</ele>
        <time>2009-05-28T00:27:08Z</time>
      </trkpt>
      <trkpt lat="45.0122700" lon="-93.4149010">
        <ele>289.9700000</ele>
        <time>2009-05-28T00:27:10Z</time>
      </trkpt>
      <trkpt lat="45.0123230" lon="-93.4149040">
        <ele>290.4600000</ele>
        <time>2009-05-28T00:27:11Z</time>
      </trkpt>
      <trkpt lat="45.0123730" lon="-93.4149040">
        <ele>290.4600000</ele>
        <time>2009-05-28T00:27:12Z</time>
      </trkpt>
      <trkpt lat="45.0124120" lon="-93.4149040">
        <ele>290.4600000</ele>
        <time>2009-05-28T00:27:13Z</time>
      </trkpt>
      <trkpt lat="45.0124500" lon="-93.4148990">
        <ele>290.4600000</ele>
        <time>2009-05-28T00:27:14Z</time>
      </trkpt>
      <trkpt lat="45.0124720" lon="-93.4148780">
        <ele>290.4600000</ele>
        <time>2009-05-28T00:27:15Z</time>
      </trkpt>
      <trkpt lat="45.0124890" lon="-93.4148610">
        <ele>290.4600000</ele>
        <time>2009-05-28T00:27:16Z</time>
      </trkpt>
      <trkpt lat="45.0125080" lon="-93.4148420">
        <ele>290.4600000</ele>
        <time>2009-05-28T00:27:17Z</time>
      </trkpt>
      <trkpt lat="45.0125320" lon="-93.4148180">
        <ele>290.4600000</ele>
        <time>2009-05-28T00:27:18Z</time>
      </trkpt>
      <trkpt lat="45.0125420" lon="-93.4146710">
        <ele>290.4600000</ele>
        <time>2009-05-28T00:27:19Z</time>
      </trkpt>
      <trkpt lat="45.0125210" lon="-93.4146050">
        <ele>289.9700000</ele>
        <time>2009-05-28T00:27:20Z</time>
      </trkpt>
      <trkpt lat="45.0124970" lon="-93.4145250">
        <ele>290.4600000</ele>
        <time>2009-05-28T00:27:21Z</time>
      </trkpt>
      <trkpt lat="45.0124670" lon="-93.4144310">
        <ele>290.4600000</ele>
        <time>2009-05-28T00:27:22Z</time>
      </trkpt>
      <trkpt lat="45.0122350" lon="-93.4138210">
        <ele>289.0100000</ele>
        <time>2009-05-28T00:27:31Z</time>
      </trkpt>
      <trkpt lat="45.0120020" lon="-93.4133810">
        <ele>289.0100000</ele>
        <time>2009-05-28T00:27:41Z</time>
      </trkpt>
      <trkpt lat="45.0114500" lon="-93.4127780">
        <ele>289.0100000</ele>
        <time>2009-05-28T00:27:48Z</time>
      </trkpt>
      <trkpt lat="45.0101950" lon="-93.4114510">
        <ele>292.8600000</ele>
        <time>2009-05-28T00:27:59Z</time>
      </trkpt>
      <trkpt lat="45.0093810" lon="-93.4107650">
        <ele>290.4600000</ele>
        <time>2009-05-28T00:28:06Z</time>
      </trkpt>
      <trkpt lat="45.0092740" lon="-93.4106590">
        <ele>290.4600000</ele>
        <time>2009-05-28T00:28:07Z</time>
      </trkpt>
      <trkpt lat="45.0086830" lon="-93.4094270">
        <ele>289.9700000</ele>
        <time>2009-05-28T00:28:16Z</time>
      </trkpt>
      <trkpt lat="45.0084020" lon="-93.4088270">
        <ele>289.9700000</ele>
        <time>2009-05-28T00:28:21Z</time>
      </trkpt>
      <trkpt lat="45.0083390" lon="-93.4087220">
        <ele>289.9700000</ele>
        <time>2009-05-28T00:28:22Z</time>
      </trkpt>
      <trkpt lat="45.0082730" lon="-93.4086340">
        <ele>290.4600000</ele>
        <time>2009-05-28T00:28:23Z</time>
      </trkpt>
      <trkpt lat="45.0081770" lon="-93.4085930">
        <ele>290.4600000</ele>
        <time>2009-05-28T00:28:24Z</time>
      </trkpt>
      <trkpt lat="45.0080810" lon="-93.4085520">
        <ele>290.4600000</ele>
        <time>2009-05-28T00:28:25Z</time>
      </trkpt>
      <trkpt lat="45.0079930" lon="-93.4085140">
        <ele>289.9700000</ele>
        <time>2009-05-28T00:28:26Z</time>
      </trkpt>
      <trkpt lat="45.0079290" lon="-93.4085090">
        <ele>289.9700000</ele>
        <time>2009-05-28T00:28:27Z</time>
      </trkpt>
      <trkpt lat="45.0078720" lon="-93.4085090">
        <ele>289.9700000</ele>
        <time>2009-05-28T00:28:28Z</time>
      </trkpt>
      <trkpt lat="45.0078310" lon="-93.4085090">
        <ele>289.9700000</ele>
        <time>2009-05-28T00:28:29Z</time>
      </trkpt>
      <trkpt lat="45.0077980" lon="-93.4085090">
        <ele>289.4900000</ele>
        <time>2009-05-28T00:28:30Z</time>
      </trkpt>
      <trkpt lat="45.0074870" lon="-93.4084860">
        <ele>286.1300000</ele>
        <time>2009-05-28T00:28:43Z</time>
      </trkpt>
      <trkpt lat="45.0075110" lon="-93.4084080">
        <ele>286.1300000</ele>
        <time>2009-05-28T00:28:44Z</time>
      </trkpt>
      <trkpt lat="45.0075110" lon="-93.4083220">
        <ele>286.1300000</ele>
        <time>2009-05-28T00:28:45Z</time>
      </trkpt>
      <trkpt lat="45.0075110" lon="-93.4082290">
        <ele>286.6100000</ele>
        <time>2009-05-28T00:28:46Z</time>
      </trkpt>
      <trkpt lat="45.0075110" lon="-93.4081250">
        <ele>286.6100000</ele>
        <time>2009-05-28T00:28:47Z</time>
      </trkpt>
      <trkpt lat="45.0075110" lon="-93.4070850">
        <ele>288.5300000</ele>
        <time>2009-05-28T00:28:53Z</time>
      </trkpt>
      <trkpt lat="45.0074910" lon="-93.4045210">
        <ele>292.3800000</ele>
        <time>2009-05-28T00:29:05Z</time>
      </trkpt>
      <trkpt lat="45.0074680" lon="-93.4028650">
        <ele>292.8600000</ele>
        <time>2009-05-28T00:29:15Z</time>
      </trkpt>
      <trkpt lat="45.0074680" lon="-93.4027140">
        <ele>293.8200000</ele>
        <time>2009-05-28T00:29:23Z</time>
      </trkpt>
      <trkpt lat="45.0074680" lon="-93.4023510">
        <ele>293.8200000</ele>
        <time>2009-05-28T00:29:33Z</time>
      </trkpt>
      <trkpt lat="45.0073460" lon="-93.4022660">
        <ele>293.3400000</ele>
        <time>2009-05-28T00:29:34Z</time>
      </trkpt>
      <trkpt lat="45.0072770" lon="-93.4022550">
        <ele>292.8600000</ele>
        <time>2009-05-28T00:29:35Z</time>
      </trkpt>
      <trkpt lat="45.0071240" lon="-93.4022000">
        <ele>291.9000000</ele>
        <time>2009-05-28T00:29:37Z</time>
      </trkpt>
      <trkpt lat="45.0070300" lon="-93.4021530">
        <ele>291.9000000</ele>
        <time>2009-05-28T00:29:38Z</time>
      </trkpt>
      <trkpt lat="45.0069240" lon="-93.4020780">
        <ele>291.9000000</ele>
        <time>2009-05-28T00:29:39Z</time>
      </trkpt>
      <trkpt lat="45.0068310" lon="-93.4019560">
        <ele>291.4200000</ele>
        <time>2009-05-28T00:29:40Z</time>
      </trkpt>
      <trkpt lat="45.0067330" lon="-93.4018300">
        <ele>290.9400000</ele>
        <time>2009-05-28T00:29:41Z</time>
      </trkpt>
      <trkpt lat="45.0063880" lon="-93.4014600">
        <ele>289.0100000</ele>
        <time>2009-05-28T00:29:44Z</time>
      </trkpt>
      <trkpt lat="45.0062530" lon="-93.4013640">
        <ele>288.0500000</ele>
        <time>2009-05-28T00:29:45Z</time>
      </trkpt>
      <trkpt lat="45.0061030" lon="-93.4013240">
        <ele>287.0900000</ele>
        <time>2009-05-28T00:29:46Z</time>
      </trkpt>
      <trkpt lat="45.0059570" lon="-93.4013010">
        <ele>286.1300000</ele>
        <time>2009-05-28T00:29:47Z</time>
      </trkpt>
      <trkpt lat="45.0058120" lon="-93.4012790">
        <ele>285.1700000</ele>
        <time>2009-05-28T00:29:48Z</time>
      </trkpt>
      <trkpt lat="45.0056720" lon="-93.4012580">
        <ele>284.6900000</ele>
        <time>2009-05-28T00:29:49Z</time>
      </trkpt>
      <trkpt lat="45.0055340" lon="-93.4012570">
        <ele>284.2100000</ele>
        <time>2009-05-28T00:29:50Z</time>
      </trkpt>
      <trkpt lat="45.0036830" lon="-93.4012570">
        <ele>282.2800000</ele>
        <time>2009-05-28T00:30:05Z</time>
      </trkpt>
      <trkpt lat="45.0018630" lon="-93.4013430">
        <ele>293.8200000</ele>
        <time>2009-05-28T00:30:22Z</time>
      </trkpt>
      <trkpt lat="45.0001690" lon="-93.4013100">
        <ele>286.1300000</ele>
        <time>2009-05-28T00:30:36Z</time>
      </trkpt>
      <trkpt lat="44.9978050" lon="-93.4012140">
        <ele>275.5600000</ele>
        <time>2009-05-28T00:30:55Z</time>
      </trkpt>
      <trkpt lat="44.9961650" lon="-93.4012140">
        <ele>274.1100000</ele>
        <time>2009-05-28T00:31:09Z</time>
      </trkpt>
      <trkpt lat="44.9949090" lon="-93.4015170">
        <ele>274.1100000</ele>
        <time>2009-05-28T00:31:20Z</time>
      </trkpt>
      <trkpt lat="44.9941400" lon="-93.4017600">
        <ele>275.0700000</ele>
        <time>2009-05-28T00:31:29Z</time>
      </trkpt>
      <trkpt lat="44.9937940" lon="-93.4017240">
        <ele>275.0700000</ele>
        <time>2009-05-28T00:31:36Z</time>
      </trkpt>
      <trkpt lat="44.9935210" lon="-93.4016950">
        <ele>273.1500000</ele>
        <time>2009-05-28T00:31:48Z</time>
      </trkpt>
      <trkpt lat="44.9934750" lon="-93.4016900">
        <ele>272.6700000</ele>
        <time>2009-05-28T00:31:49Z</time>
      </trkpt>
      <trkpt lat="44.9931100" lon="-93.4015980">
        <ele>273.1500000</ele>
        <time>2009-05-28T00:31:59Z</time>
      </trkpt>
      <trkpt lat="44.9929750" lon="-93.4015610">
        <ele>273.6300000</ele>
        <time>2009-05-28T00:32:01Z</time>
      </trkpt>
      <trkpt lat="44.9929620" lon="-93.4015570">
        <ele>274.1100000</ele>
        <time>2009-05-28T00:32:02Z</time>
      </trkpt>
      <trkpt lat="44.9929570" lon="-93.4013800">
        <ele>274.1100000</ele>
        <time>2009-05-28T00:32:03Z</time>
      </trkpt>
      <trkpt lat="44.9929530" lon="-93.4012600">
        <ele>274.5900000</ele>
        <time>2009-05-28T00:32:04Z</time>
      </trkpt>
      <trkpt lat="44.9929500" lon="-93.4011400">
        <ele>274.5900000</ele>
        <time>2009-05-28T00:32:05Z</time>
      </trkpt>
      <trkpt lat="44.9929460" lon="-93.4010220">
        <ele>275.0700000</ele>
        <time>2009-05-28T00:32:06Z</time>
      </trkpt>
      <trkpt lat="44.9928710" lon="-93.3993320">
        <ele>279.8800000</ele>
        <time>2009-05-28T00:32:18Z</time>
      </trkpt>
      <trkpt lat="44.9927890" lon="-93.3979550">
        <ele>280.8400000</ele>
        <time>2009-05-28T00:32:28Z</time>
      </trkpt>
      <trkpt lat="44.9927240" lon="-93.3963420">
        <ele>280.3600000</ele>
        <time>2009-05-28T00:32:39Z</time>
      </trkpt>
      <trkpt lat="44.9923420" lon="-93.3950800">
        <ele>279.8800000</ele>
        <time>2009-05-28T00:32:47Z</time>
      </trkpt>
      <trkpt lat="44.9915440" lon="-93.3932310">
        <ele>286.6100000</ele>
        <time>2009-05-28T00:33:00Z</time>
      </trkpt>
      <trkpt lat="44.9914370" lon="-93.3917690">
        <ele>287.5700000</ele>
        <time>2009-05-28T00:33:08Z</time>
      </trkpt>
      <trkpt lat="44.9916760" lon="-93.3908750">
        <ele>284.6900000</ele>
        <time>2009-05-28T00:33:15Z</time>
      </trkpt>
      <trkpt lat="44.9918080" lon="-93.3905290">
        <ele>283.7300000</ele>
        <time>2009-05-28T00:33:20Z</time>
      </trkpt>
      <trkpt lat="44.9918270" lon="-93.3904760">
        <ele>283.2500000</ele>
        <time>2009-05-28T00:33:21Z</time>
      </trkpt>
      <trkpt lat="44.9916680" lon="-93.3903130">
        <ele>283.2500000</ele>
        <time>2009-05-28T00:33:22Z</time>
      </trkpt>
      <trkpt lat="44.9915840" lon="-93.3903130">
        <ele>283.2500000</ele>
        <time>2009-05-28T00:33:23Z</time>
      </trkpt>
      <trkpt lat="44.9914710" lon="-93.3903160">
        <ele>282.7700000</ele>
        <time>2009-05-28T00:33:24Z</time>
      </trkpt>
      <trkpt lat="44.9913470" lon="-93.3903280">
        <ele>282.7700000</ele>
        <time>2009-05-28T00:33:25Z</time>
      </trkpt>
      <trkpt lat="44.9892790" lon="-93.3903560">
        <ele>277.9600000</ele>
        <time>2009-05-28T00:33:41Z</time>
      </trkpt>
      <trkpt lat="44.9883500" lon="-93.3903470">
        <ele>277.9600000</ele>
        <time>2009-05-28T00:33:51Z</time>
      </trkpt>
      <trkpt lat="44.9872560" lon="-93.3903330">
        <ele>276.5200000</ele>
        <time>2009-05-28T00:34:01Z</time>
      </trkpt>
      <trkpt lat="44.9861950" lon="-93.3903190">
        <ele>273.1500000</ele>
        <time>2009-05-28T00:34:13Z</time>
      </trkpt>
      <trkpt lat="44.9858350" lon="-93.3903150">
        <ele>272.6700000</ele>
        <time>2009-05-28T00:34:19Z</time>
      </trkpt>
      <trkpt lat="44.9857540" lon="-93.3903140">
        <ele>272.6700000</ele>
        <time>2009-05-28T00:34:20Z</time>
      </trkpt>
      <trkpt lat="44.9856920" lon="-93.3903130">
        <ele>272.6700000</ele>
        <time>2009-05-28T00:34:21Z</time>
      </trkpt>
      <trkpt lat="44.9857230" lon="-93.3900720">
        <ele>272.6700000</ele>
        <time>2009-05-28T00:34:22Z</time>
      </trkpt>
      <trkpt lat="44.9857310" lon="-93.3899280">
        <ele>272.6700000</ele>
        <time>2009-05-28T00:34:23Z</time>
      </trkpt>
      <trkpt lat="44.9857390" lon="-93.3897850">
        <ele>272.6700000</ele>
        <time>2009-05-28T00:34:24Z</time>
      </trkpt>
      <trkpt lat="44.9858510" lon="-93.3889850">
        <ele>273.6300000</ele>
        <time>2009-05-28T00:34:32Z</time>
      </trkpt>
      <trkpt lat="44.9862230" lon="-93.3880900">
        <ele>275.0700000</ele>
        <time>2009-05-28T00:34:42Z</time>
      </trkpt>
      <trkpt lat="44.9866860" lon="-93.3871400">
        <ele>279.8800000</ele>
        <time>2009-05-28T00:34:53Z</time>
      </trkpt>
      <trkpt lat="44.9867830" lon="-93.3864240">
        <ele>281.8000000</ele>
        <time>2009-05-28T00:35:02Z</time>
      </trkpt>
      <trkpt lat="44.9867830" lon="-93.3861330">
        <ele>282.7700000</ele>
        <time>2009-05-28T00:35:11Z</time>
      </trkpt>
      <trkpt lat="44.9867830" lon="-93.3858270">
        <ele>283.7300000</ele>
        <time>2009-05-28T00:35:21Z</time>
      </trkpt>
      <trkpt lat="44.9867830" lon="-93.3854210">
        <ele>285.1700000</ele>
        <time>2009-05-28T00:35:33Z</time>
      </trkpt>
      <trkpt lat="44.9867530" lon="-93.3846470">
        <ele>285.1700000</ele>
        <time>2009-05-28T00:35:40Z</time>
      </trkpt>
      <trkpt lat="44.9867180" lon="-93.3842480">
        <ele>284.2100000</ele>
        <time>2009-05-28T00:35:43Z</time>
      </trkpt>
      <trkpt lat="44.9866700" lon="-93.3841210">
        <ele>283.2500000</ele>
        <time>2009-05-28T00:35:44Z</time>
      </trkpt>
      <trkpt lat="44.9866220" lon="-93.3839900">
        <ele>283.2500000</ele>
        <time>2009-05-28T00:35:45Z</time>
      </trkpt>
      <trkpt lat="44.9865560" lon="-93.3838930">
        <ele>283.2500000</ele>
        <time>2009-05-28T00:35:46Z</time>
      </trkpt>
      <trkpt lat="44.9864740" lon="-93.3837910">
        <ele>283.2500000</ele>
        <time>2009-05-28T00:35:47Z</time>
      </trkpt>
      <trkpt lat="44.9863860" lon="-93.3837350">
        <ele>283.2500000</ele>
        <time>2009-05-28T00:35:48Z</time>
      </trkpt>
      <trkpt lat="44.9862780" lon="-93.3837100">
        <ele>283.2500000</ele>
        <time>2009-05-28T00:35:49Z</time>
      </trkpt>
      <trkpt lat="44.9861720" lon="-93.3836860">
        <ele>283.2500000</ele>
        <time>2009-05-28T00:35:50Z</time>
      </trkpt>
      <trkpt lat="44.9860710" lon="-93.3836620">
        <ele>283.2500000</ele>
        <time>2009-05-28T00:35:51Z</time>
      </trkpt>
      <trkpt lat="44.9859790" lon="-93.3836410">
        <ele>283.2500000</ele>
        <time>2009-05-28T00:35:52Z</time>
      </trkpt>
      <trkpt lat="44.9858980" lon="-93.3836230">
        <ele>283.2500000</ele>
        <time>2009-05-28T00:35:53Z</time>
      </trkpt>
      <trkpt lat="44.9858280" lon="-93.3835650">
        <ele>283.2500000</ele>
        <time>2009-05-28T00:35:54Z</time>
      </trkpt>
      <trkpt lat="44.9857800" lon="-93.3835170">
        <ele>283.2500000</ele>
        <time>2009-05-28T00:35:55Z</time>
      </trkpt>
      <trkpt lat="44.9857400" lon="-93.3834770">
        <ele>283.2500000</ele>
        <time>2009-05-28T00:35:56Z</time>
      </trkpt>
      <trkpt lat="44.9857090" lon="-93.3834460">
        <ele>283.7300000</ele>
        <time>2009-05-28T00:35:57Z</time>
      </trkpt>
      <trkpt lat="44.9856460" lon="-93.3834450">
        <ele>283.7300000</ele>
        <time>2009-05-28T00:35:58Z</time>
      </trkpt>
      <trkpt lat="44.9856320" lon="-93.3834740">
        <ele>283.2500000</ele>
        <time>2009-05-28T00:35:59Z</time>
      </trkpt>
      <trkpt lat="44.9856210" lon="-93.3834960">
        <ele>283.2500000</ele>
        <time>2009-05-28T00:36:00Z</time>
      </trkpt>
      <trkpt lat="44.9855810" lon="-93.3835760">
        <ele>283.2500000</ele>
        <time>2009-05-28T00:36:05Z</time>
      </trkpt>
      <trkpt lat="44.9856670" lon="-93.3834040">
        <ele>283.2500000</ele>
        <time>2009-05-28T00:36:06Z</time>
      </trkpt>
      <trkpt lat="44.9856670" lon="-93.3834040">
        <ele>283.2500000</ele>
        <time>2009-05-28T00:36:07Z</time>
      </trkpt>
      <trkpt lat="44.9856600" lon="-93.3833850">
        <ele>282.7700000</ele>
        <time>2009-05-28T00:36:08Z</time>
      </trkpt>
      <trkpt lat="44.9856490" lon="-93.3833540">
        <ele>282.7700000</ele>
        <time>2009-05-28T00:36:09Z</time>
      </trkpt>
      <trkpt lat="44.9855810" lon="-93.3835760">
        <ele>282.7700000</ele>
        <time>2009-05-28T00:36:10Z</time>
      </trkpt>
      <trkpt lat="44.9855750" lon="-93.3836040">
        <ele>282.7700000</ele>
        <time>2009-05-28T00:36:11Z</time>
      </trkpt>
      <trkpt lat="44.9855680" lon="-93.3836380">
        <ele>282.7700000</ele>
        <time>2009-05-28T00:36:12Z</time>
      </trkpt>
      <trkpt lat="44.9848970" lon="-93.3835740">
        <ele>281.8000000</ele>
        <time>2009-05-28T00:36:24Z</time>
      </trkpt>
      <trkpt lat="44.9848660" lon="-93.3834380">
        <ele>282.2800000</ele>
        <time>2009-05-28T00:36:30Z</time>
      </trkpt>
      <trkpt lat="44.9848770" lon="-93.3828290">
        <ele>282.2800000</ele>
        <time>2009-05-28T00:36:46Z</time>
      </trkpt>
      <trkpt lat="44.9848640" lon="-93.3822860">
        <ele>283.7300000</ele>
        <time>2009-05-28T00:36:55Z</time>
      </trkpt>
      <trkpt lat="44.9848220" lon="-93.3817760">
        <ele>284.6900000</ele>
        <time>2009-05-28T00:37:02Z</time>
      </trkpt>
      <trkpt lat="44.9846930" lon="-93.3816540">
        <ele>284.6900000</ele>
        <time>2009-05-28T00:37:07Z</time>
      </trkpt>
      <trkpt lat="44.9844980" lon="-93.3816750">
        <ele>284.2100000</ele>
        <time>2009-05-28T00:37:19Z</time>
      </trkpt>
      <trkpt lat="44.9844570" lon="-93.3817390">
        <ele>284.2100000</ele>
        <time>2009-05-28T00:37:33Z</time>
      </trkpt>
      <trkpt lat="44.9844570" lon="-93.3817380">
        <ele>283.2500000</ele>
        <time>2009-05-28T00:37:50Z</time>
      </trkpt>
    </trkseg>
  </trk>

</gpx>
